createdAt,value
2018-10-02T00:01:28.230Z,14.1
2018-10-02T00:11:31.524Z,11.1
2018-10-02T00:21:28.008Z,9.7
2018-10-02T00:31:27.136Z,10.0
2018-10-02T00:41:26.947Z,8.7
2018-10-02T00:51:31.344Z,7.8
2018-10-02T01:01:26.777Z,7.2
2018-10-02T01:11:32.431Z,7.2
2018-10-02T01:21:26.484Z,7.1
2018-10-02T01:31:26.782Z,7.1
2018-10-02T01:41:28.248Z,6.8
2018-10-02T01:51:26.133Z,7.1
2018-10-02T02:01:31.904Z,8.0
2018-10-02T02:11:37.667Z,7.3
2018-10-02T02:21:27.852Z,7.8
2018-10-02T02:31:28.351Z,8.2
2018-10-02T02:41:26.225Z,8.4
2018-10-02T02:51:28.933Z,8.8
2018-10-02T03:01:28.367Z,9.2
2018-10-02T03:11:27.559Z,9.4
2018-10-02T03:21:26.986Z,10.2
2018-10-02T03:31:28.911Z,11.0
2018-10-02T03:41:26.734Z,11.3
2018-10-02T03:51:27.064Z,13.4
2018-10-02T04:01:27.185Z,13.7
2018-10-02T04:11:32.203Z,13.8
2018-10-02T04:21:32.526Z,15.7
2018-10-02T04:31:26.387Z,14.6
2018-10-02T04:41:33.906Z,15.7
2018-10-02T04:51:28.870Z,16.8
2018-10-02T05:01:29.628Z,18.0
2018-10-02T05:11:32.235Z,18.8
2018-10-02T05:21:32.036Z,18.8
2018-10-02T05:31:26.272Z,18.5
2018-10-02T05:41:26.261Z,20.2
2018-10-02T05:51:28.944Z,20.1
2018-10-02T06:01:27.644Z,20.1
2018-10-02T06:11:26.765Z,19.7
2018-10-02T06:21:27.276Z,16.9
2018-10-02T06:31:26.605Z,15.5
2018-10-02T06:41:26.407Z,15.8
2018-10-02T06:51:26.892Z,17.0
2018-10-02T07:01:27.867Z,16.0
2018-10-02T07:11:28.156Z,16.0
2018-10-02T07:21:26.334Z,15.7
2018-10-02T07:31:26.603Z,14.9
2018-10-02T07:41:26.966Z,14.8
2018-10-02T07:51:27.287Z,13.9
2018-10-02T08:01:31.743Z,14.9
2018-10-02T08:11:30.707Z,14.1
2018-10-02T08:21:26.318Z,6.9
2018-10-02T08:31:26.131Z,8.0
2018-10-02T08:41:26.858Z,4.1
2018-10-02T08:51:27.581Z,4.1
2018-10-02T09:01:26.846Z,3.8
2018-10-02T09:11:26.802Z,5.9
2018-10-02T09:21:29.166Z,6.9
2018-10-02T09:31:26.458Z,5.8
2018-10-02T09:41:27.389Z,5.9
2018-10-02T09:51:31.870Z,5.2
2018-10-02T10:01:30.198Z,5.8
2018-10-02T10:11:26.034Z,4.9
2018-10-02T10:21:27.432Z,6.8
2018-10-02T10:31:33.899Z,8.7
2018-10-02T10:41:32.580Z,10.4
2018-10-02T10:51:27.374Z,10.6
2018-10-02T11:01:32.936Z,10.8
2018-10-02T11:11:26.790Z,13.2
2018-10-02T11:21:27.600Z,13.7
2018-10-02T11:31:26.470Z,12.4
2018-10-02T11:41:27.600Z,13.1
2018-10-02T11:51:27.196Z,13.5
2018-10-02T12:01:26.607Z,12.6
2018-10-02T12:11:28.383Z,12.7
2018-10-02T12:21:26.749Z,14.0
2018-10-02T12:31:28.528Z,14.7
2018-10-02T12:41:27.031Z,15.1
2018-10-02T12:51:26.966Z,15.9
2018-10-02T13:01:26.071Z,14.7
2018-10-02T13:11:28.383Z,14.4
2018-10-02T13:21:26.474Z,11.2
2018-10-02T13:31:27.039Z,10.2
2018-10-02T13:41:30.205Z,9.1
2018-10-02T13:51:27.928Z,6.7
2018-10-02T14:01:29.371Z,5.3
2018-10-02T14:11:27.544Z,4.9
2018-10-02T14:21:28.665Z,5.4
2018-10-02T14:31:28.531Z,5.4
2018-10-02T14:41:26.749Z,5.1
2018-10-02T14:51:26.569Z,6.8
2018-10-02T15:01:27.323Z,6.3
2018-10-02T15:11:26.170Z,7.5
2018-10-02T15:21:32.969Z,5.7
2018-10-02T15:31:26.005Z,5.7
2018-10-02T15:41:26.912Z,5.3
2018-10-02T15:51:26.755Z,4.8
2018-10-02T16:01:29.348Z,6.4
2018-10-02T16:11:26.381Z,8.9
2018-10-02T16:21:26.936Z,11.3
2018-10-02T16:31:26.690Z,10.0
2018-10-02T16:41:28.989Z,10.4
2018-10-02T16:51:28.371Z,9.9
2018-10-02T17:01:27.696Z,10.4
2018-10-02T17:11:29.694Z,9.9
2018-10-02T17:21:27.432Z,9.7
2018-10-02T17:31:32.145Z,9.5
2018-10-02T17:41:28.768Z,11.0
2018-10-02T17:51:33.559Z,11.8
2018-10-02T18:01:26.923Z,10.7
2018-10-02T18:11:26.590Z,10.4
2018-10-02T18:21:31.810Z,9.9
2018-10-02T18:31:28.415Z,8.8
2018-10-02T18:41:27.120Z,9.9
2018-10-02T18:51:26.365Z,9.3
2018-10-02T19:01:32.129Z,9.2
2018-10-02T19:11:52.860Z,10.7
2018-10-02T19:21:32.935Z,10.9
2018-10-02T19:31:27.474Z,13.2
2018-10-02T20:12:17.989Z,26.6
2018-10-02T20:21:32.229Z,7.1
2018-10-02T20:31:31.558Z,6.6
2018-10-02T20:41:33.125Z,5.9
2018-10-02T20:51:41.608Z,6.7
2018-10-02T21:01:32.821Z,5.3
2018-10-02T21:11:31.621Z,5.0
2018-10-02T21:31:32.995Z,5.0
2018-10-02T21:41:33.047Z,4.5
2018-10-02T21:51:33.310Z,3.9
2018-10-02T22:01:31.723Z,4.7
2018-10-02T22:11:37.305Z,4.3
2018-10-02T22:21:37.978Z,4.3
2018-10-02T22:31:26.193Z,4.8
2018-10-02T22:41:37.554Z,4.1
2018-10-02T22:51:36.447Z,4.3
2018-10-02T23:02:03.168Z,4.6
2018-10-02T23:11:32.692Z,4.8
2018-10-02T23:21:31.695Z,4.5
2018-10-02T23:31:56.047Z,4.5
2018-10-02T23:41:38.439Z,3.3
2018-10-02T23:51:57.318Z,3.4
